Latest Weather Observations for Munglinup West

IDW60801

Issued at 3:23 am WST Wednesday 18 July 2018 (issued every 10 minutes, with the page automatically refreshed every 10 minutes)

About weather observations | Map of weather stations | Latest weather observations for WA | Other Formats
Station Details ID: 012044 Name: MUNGLINUP WEST Lat: -33.55 Lon: 120.70 Height: 220.0 m
Data from the previous 72 hours. | See also: Recent months at Munglinup West
Date/Time
WST
Temp
°C
App
Temp
°C
Dew
Point
°C
Rel
Hum
%
Delta-T
°C
Wind Press
QNH
hPa
Press
MSL
hPa
Rain since
9am
mm
Dir  Spd
km/h
Gust
km/h
Spd
kts
Gust
kts
18/03:00am 8.6 4.7 7.2 91 0.7 NW 17 24 9 13 1012.7 1012.8 0.0
18/02:30am 8.4 4.9 7.0 91 0.7 NW 15 22 8 12 1012.9 1013.0 0.0
18/02:00am 8.0 4.8 6.8 92 0.6 NW 13 17 7 9 1013.0 1013.1 0.0
18/01:30am 8.3 5.1 6.8 90 0.7 NW 13 17 7 9 1013.1 1013.2 0.0
18/01:00am 8.3 5.0 6.6 89 0.8 NW 13 20 7 11 1013.0 1013.1 0.0
18/12:30am 7.8 4.8 6.1 89 0.8 NW 11 15 6 8 1013.0 1013.1 0.0
18/12:00am 8.2 5.2 6.2 87 0.9 NW 11 15 6 8 1013.3 1013.4 0.0
 
Date/Time
WST
Temp
°C
App
Temp
°C
Dew
Point
°C
Rel
Hum
%
Delta-T
°C
Wind Press
QNH
hPa
Press
MSL
hPa
Rain since
9am
mm
Dir  Spd
km/h
Gust
km/h
Spd
kts
Gust
kts
17/11:30pm 8.4 5.8 6.2 86 1.0 NW 9 13 5 7 1013.6 1013.7 0.0
17/11:00pm 8.7 6.1 6.3 85 1.1 NW 9 13 5 7 1013.8 1013.9 0.0
17/10:30pm 9.3 6.4 6.6 83 1.3 NW 11 15 6 8 1013.9 1014.0 0.0
17/10:00pm 10.3 6.7 6.8 79 1.7 NW 15 20 8 11 1014.0 1014.1 0.0
17/09:30pm 10.3 7.1 6.8 79 1.7 NW 13 20 7 11 1014.1 1014.2 0.0
17/09:00pm 10.3 7.0 6.6 78 1.8 NW 13 19 7 10 1014.1 1014.2 0.0
17/08:30pm 10.8 7.9 6.6 75 2.0 NW 11 17 6 9 1014.2 1014.3 0.0
17/08:00pm 11.1 7.8 6.3 72 2.3 NW 13 19 7 10 1014.1 1014.2 0.0
17/07:30pm 11.9 8.2 6.2 68 2.7 NW 15 20 8 11 1013.7 1013.8 0.0
17/07:00pm 12.4 9.0 6.0 65 3.0 NW 13 20 7 11 1013.7 1013.8 0.0
17/06:30pm 13.2 8.7 6.1 62 3.4 NW 19 30 10 16 1013.6 1013.7 0.0
17/06:00pm 13.6 9.1 6.0 60 3.7 NW 19 35 10 19 1013.5 1013.6 0.0
17/05:30pm 13.8 9.6 5.7 58 3.9 NW 17 26 9 14 1013.4 1013.5 0.0
17/05:00pm 14.7 8.8 5.8 55 4.3 NW 26 39 14 21 1013.1 1013.2 0.0
17/04:35pm 15.3 9.0 5.8 53 4.6 NW 28 46 15 25 1012.8 1012.9 0.0
17/04:30pm 15.4 8.7 5.6 52 4.7 NW 30 46 16 25 1012.8 1012.9 0.0
17/04:00pm 15.9 10.4 5.8 51 4.9 NW 24 43 13 23 1012.8 1012.9 0.0
17/03:46pm 16.1 9.7 5.4 49 5.2 WNW 28 48 15 26 1012.9 1013.0 0.0
17/03:30pm 16.4 10.4 5.1 47 5.4 WNW 26 44 14 24 1012.9 1013.0 0.0
17/03:00pm 16.5 10.1 5.2 47 5.5 WNW 28 41 15 22 1012.8 1012.9 0.0
17/02:30pm 16.7 10.3 5.0 46 5.6 WNW 28 44 15 24 1012.9 1013.0 0.0
17/02:00pm 16.6 10.1 4.9 46 5.6 WNW 28 43 15 23 1012.8 1012.9 0.0
17/01:30pm 16.3 9.0 4.7 46 5.5 WNW 32 46 17 25 1012.9 1013.0 0.0
17/01:00pm 16.5 9.9 4.2 44 5.8 WNW 28 46 15 25 1013.3 1013.4 0.0
17/12:30pm 15.9 8.9 4.3 46 5.5 WNW 30 46 16 25 1013.6 1013.7 0.0
17/12:24pm 15.5 8.5 4.3 47 5.3 WNW 30 46 16 25 1013.7 1013.8 0.0
17/12:00pm 14.9 8.4 4.9 51 4.7 WNW 28 43 15 23 1014.1 1014.2 0.0
17/11:30am 14.7 7.9 5.2 53 4.5 WNW 30 43 16 23 1014.5 1014.6 0.0
17/11:00am 13.9 7.1 5.3 56 4.1 WNW 30 43 16 23 1015.0 1015.0 0.0
17/10:30am 13.6 8.0 5.3 57 3.9 WNW 24 37 13 20 1015.4 1015.4 0.0
17/10:00am 12.2 7.0 5.4 63 3.2 WNW 22 32 12 17 1015.6 1015.6 0.0
17/09:30am 11.0 6.1 4.9 66 2.8 WNW 20 32 11 17 1015.6 1015.6 0.0
17/09:00am 9.7 4.7 4.7 71 2.3 WNW 20 28 11 15 1015.5 1015.5 0.8
17/08:30am 8.2 3.2 4.4 77 1.7 NW 20 33 11 18 1015.4 1015.4 0.8
17/08:00am 6.6 2.1 4.4 86 1.0 NW 17 24 9 13 1015.1 1015.1 0.8
17/07:30am 5.2 1.4 4.0 92 0.5 NW 13 19 7 10 1014.6 1014.7 0.8
17/07:00am 5.3 1.1 4.0 91 0.6 NW 15 22 8 12 1014.5 1014.6 0.8
17/06:30am 5.3 1.1 4.0 91 0.6 NW 15 20 8 11 1014.1 1014.2 0.8
17/06:00am 5.8 0.9 4.1 89 0.7 NW 19 28 10 15 1013.9 1014.0 0.8
17/05:30am 5.6 1.0 3.9 89 0.7 NW 17 22 9 12 1013.6 1013.7 0.8
17/05:00am 5.8 1.6 4.0 88 0.8 NW 15 24 8 13 1013.7 1013.8 0.8
17/04:30am 5.4 1.6 3.9 90 0.6 NW 13 19 7 10 1013.7 1013.8 0.8
17/04:00am 5.8 2.0 4.1 89 0.7 NW 13 19 7 10 1013.4 1013.5 0.8
17/03:30am 5.8 1.7 4.1 89 0.7 NW 15 20 8 11 1013.2 1013.3 0.8
17/03:00am 6.5 2.8 4.2 85 1.0 WNW 13 19 7 10 1013.2 1013.3 0.8
17/02:30am 7.6 2.5 4.2 79 1.5 W 20 26 11 14 1013.0 1013.1 0.8
17/02:00am 7.8 2.8 4.7 81 1.4 W 20 30 11 16 1012.9 1013.0 0.8
17/01:30am 7.8 3.4 4.7 81 1.4 WNW 17 26 9 14 1012.9 1013.0 0.8
17/01:00am 8.3 2.6 5.1 80 1.4 W 24 35 13 19 1012.8 1012.9 0.8
17/12:30am 8.5 2.0 4.7 77 1.7 W 28 41 15 22 1012.7 1012.8 0.8
17/12:00am 8.4 1.4 4.2 75 1.9 W 30 41 16 22 1012.4 1012.4 0.8
 
Date/Time
WST
Temp
°C
App
Temp
°C
Dew
Point
°C
Rel
Hum
%
Delta-T
°C
Wind Press
QNH
hPa
Press
MSL
hPa
Rain since
9am
mm
Dir  Spd
km/h
Gust
km/h
Spd
kts
Gust
kts
16/11:30pm 8.8 1.5 4.4 74 2.0 W 32 48 17 26 1012.4 1012.4 0.8
16/11:00pm 8.6 1.7 4.8 77 1.7 W 30 44 16 24 1012.7 1012.8 0.8
16/10:30pm 8.8 2.4 5.0 77 1.7 W 28 39 15 21 1012.5 1012.6 0.8
16/10:00pm 9.2 2.4 5.2 76 1.8 W 30 39 16 21 1012.3 1012.3 0.8
16/09:30pm 9.5 2.8 5.5 76 1.8 W 30 37 16 20 1012.0 1012.0 0.8
16/09:00pm 9.8 3.5 5.8 76 1.9 W 28 35 15 19 1011.7 1011.7 0.8
16/08:30pm 10.6 3.8 6.7 77 1.9 W 32 41 17 22 1011.3 1011.3 0.8
16/08:05pm 11.2 4.4 7.7 79 1.7 W 33 52 18 28 1010.7 1010.7 0.8
16/08:00pm 11.4 4.9 8.1 80 1.6 W 32 48 17 26 1010.6 1010.6 0.8
16/07:30pm 11.4 4.5 8.8 84 1.3 W 35 46 19 25 1009.8 1009.9 0.8
16/07:00pm 11.6 1.9 9.2 85 1.2 WSW 50 70 27 38 1008.9 1009.0 0.8
16/06:35pm 12.4 5.3 11.0 91 0.7 W 39 59 21 32 1008.1 1008.1 0.8
16/06:30pm 12.9 6.0 11.5 91 0.8 W 39 50 21 27 1007.9 1007.9 0.6
16/06:00pm 13.8 5.9 11.5 86 1.2 W 44 65 24 35 1007.1 1007.1 0.4
16/05:30pm 15.7 7.7 8.9 64 3.5 W 41 61 22 33 1006.0 1006.0 0.0
16/05:00pm 16.0 7.9 8.7 62 3.8 WNW 41 72 22 39 1005.8 1005.8 0.0
16/04:30pm 17.1 9.3 8.3 56 4.5 WNW 39 59 21 32 1005.0 1005.1 0.0
16/04:00pm 17.6 9.8 8.2 54 4.9 WNW 39 65 21 35 1004.6 1004.6 0.0
16/03:30pm 17.9 9.5 7.3 50 5.4 WNW 41 63 22 34 1004.7 1004.7 0.0
16/03:01pm 17.9 10.8 7.9 52 5.1 WNW 35 54 19 29 1004.8 1004.9 0.0
16/03:00pm 17.8 11.0 7.8 52 5.2 WNW 33 48 18 26 1004.8 1004.9 0.0
16/02:30pm 17.9 10.2 8.5 54 4.9 WNW 39 59 21 32 1004.3 1004.3 0.0
16/02:00pm 17.3 9.4 9.2 59 4.3 WNW 41 65 22 35 1004.5 1004.5 0.0
16/01:30pm 17.4 9.1 9.3 59 4.3 WNW 43 69 23 37 1004.9 1005.0 0.0
16/01:00pm 17.2 8.9 9.4 60 4.1 WNW 43 70 23 38 1004.9 1005.0 0.0
16/12:30pm 16.7 9.3 9.9 64 3.6 WNW 39 61 21 33 1005.1 1005.2 0.0
16/12:05pm 16.6 8.8 9.8 64 3.6 WNW 41 61 22 33 1006.0 1006.0 0.0
16/12:00pm 16.8 9.4 9.7 63 3.8 WNW 39 57 21 31 1006.1 1006.1 0.0
16/11:30am 16.1 9.1 9.8 66 3.3 WNW 37 65 20 35 1006.9 1006.9 0.0
16/11:00am 15.4 9.8 10.2 71 2.8 WNW 30 50 16 27 1007.6 1007.6 0.0
16/10:30am 15.2 9.6 10.2 72 2.6 WNW 30 48 16 26 1008.0 1008.0 0.0
16/10:14am 15.3 10.0 9.9 70 2.8 WNW 28 48 15 26 1008.2 1008.2 0.0
16/10:00am 15.1 9.1 10.1 72 2.6 WNW 32 46 17 25 1008.4 1008.4 0.0
16/09:30am 14.9 9.3 10.3 74 2.4 WNW 30 52 16 28 1008.3 1008.3 0.0
16/09:00am 13.6 7.6 10.0 79 1.9 WNW 32 50 17 27 1008.6 1008.6 0.0
16/08:57am 13.6 8.0 10.0 79 1.9 WNW 30 50 16 27 1008.7 1008.8 0.0
16/08:30am 12.8 7.5 10.0 83 1.5 NW 28 46 15 25 1008.8 1008.9 0.0
16/08:00am 12.1 8.0 10.2 88 1.0 NW 22 33 12 18 1009.0 1009.1 0.0
16/07:30am 11.8 7.7 10.2 90 0.8 NW 22 33 12 18 1008.8 1008.9 0.0
16/07:00am 11.9 7.8 10.0 88 1.0 NW 22 37 12 20 1008.9 1009.0 0.0
16/06:30am 12.0 7.5 9.9 87 1.1 NW 24 41 13 22 1009.0 1009.1 0.0
16/06:00am 11.9 7.8 10.0 88 1.0 NW 22 35 12 19 1009.1 1009.2 0.0
16/05:30am 11.9 7.8 10.1 89 0.9 NW 22 32 12 17 1009.3 1009.4 0.0
16/05:00am 12.0 7.9 10.1 88 1.0 NW 22 32 12 17 1009.2 1009.3 0.0
16/04:30am 11.6 7.2 10.3 92 0.7 NW 24 39 13 21 1009.3 1009.4 0.0
16/04:00am 11.9 6.9 9.6 86 1.2 NW 26 35 14 19 1009.6 1009.7 0.0
16/03:30am 11.8 8.1 9.5 86 1.2 WNW 19 28 10 15 1010.0 1010.1 0.0
16/03:00am 11.7 8.0 9.6 87 1.1 NW 19 28 10 15 1010.4 1010.4 0.0
16/02:30am 11.3 6.7 9.6 89 0.9 NW 24 35 13 19 1010.3 1010.3 0.0
16/02:00am 11.2 6.6 9.5 89 0.9 NW 24 39 13 21 1010.2 1010.2 0.0
16/01:30am 11.1 6.8 9.5 90 0.8 NW 22 35 12 19 1010.4 1010.4 0.0
16/01:00am 11.0 7.7 9.4 90 0.8 NW 17 26 9 14 1010.8 1010.8 0.0
16/12:30am 11.1 7.4 9.4 89 0.9 NW 19 28 10 15 1011.0 1011.0 0.0
16/12:00am 11.1 7.4 9.4 89 0.9 NW 19 26 10 14 1011.6 1011.6 0.0
 
Date/Time
WST
Temp
°C
App
Temp
°C
Dew
Point
°C
Rel
Hum
%
Delta-T
°C
Wind Press
QNH
hPa
Press
MSL
hPa
Rain since
9am
mm
Dir  Spd
km/h
Gust
km/h
Spd
kts
Gust
kts
15/11:30pm 11.6 7.7 9.3 86 1.2 NW 20 32 11 17 1011.9 1011.9 0.0
15/11:00pm 11.7 8.0 9.3 85 1.2 NW 19 32 10 17 1011.8 1011.8 0.0
15/10:30pm 12.0 7.8 9.6 85 1.2 NW 22 30 12 16 1011.9 1011.9 0.0
15/10:00pm 12.2 7.6 9.6 84 1.3 NW 24 35 13 19 1012.1 1012.1 0.0
15/09:30pm 12.4 7.4 9.4 82 1.5 NW 26 37 14 20 1012.2 1012.2 0.0
15/09:00pm 12.7 7.6 9.2 79 1.8 NW 26 44 14 24 1012.3 1012.3 0.0
15/08:30pm 12.1 8.0 8.6 79 1.8 NW 20 35 11 19 1012.4 1012.4 0.0
15/08:00pm 11.9 7.8 8.0 77 1.9 NW 19 32 10 17 1012.3 1012.3 0.0
15/07:30pm 11.5 7.6 7.2 75 2.1 NW 17 24 9 13 1012.4 1012.4 0.0
15/07:00pm 11.4 7.0 6.7 73 2.3 NW 19 24 10 13 1012.4 1012.4 0.0
15/06:30pm 11.1 7.8 6.6 74 2.1 NW 13 19 7 10 1012.4 1012.4 0.0
15/06:00pm 11.4 8.5 6.5 72 2.3 NW 11 17 6 9 1012.1 1012.1 0.0
15/05:30pm 12.4 8.4 6.7 68 2.8 NW 17 26 9 14 1011.9 1011.9 0.0
15/05:00pm 13.9 9.3 6.7 62 3.5 WNW 20 37 11 20 1012.0 1012.0 0.0
15/04:30pm 14.3 8.5 6.4 59 3.8 WNW 26 43 14 23 1011.8 1011.8 0.0
15/04:00pm 14.9 9.1 6.2 56 4.2 WNW 26 39 14 21 1011.7 1011.7 0.0
15/03:30pm 15.1 8.8 5.9 54 4.5 WNW 28 43 15 23 1011.8 1011.8 0.0
15/03:00pm 16.0 8.8 5.0 48 5.3 WNW 32 44 17 24 1011.6 1011.6 0.0
15/02:30pm 16.1 8.8 5.4 49 5.2 W 33 44 18 24 1011.4 1011.4 0.0
15/02:00pm 16.2 9.0 4.9 47 5.4 W 32 43 17 23 1011.2 1011.2 0.0
15/01:30pm 15.8 9.0 5.1 49 5.1 W 30 39 16 21 1011.4 1011.4 0.0
15/01:00pm 15.4 9.3 5.0 50 5.0 W 26 37 14 20 1011.7 1011.7 0.0
15/12:30pm 15.0 7.9 5.5 53 4.6 W 32 39 17 21 1012.0 1012.0 0.0
15/12:00pm 14.3 6.7 5.7 56 4.1 W 35 43 19 23 1012.3 1012.3 0.0
15/11:30am 14.1 6.8 5.5 56 4.1 W 33 43 18 23 1012.6 1012.7 0.0
15/11:00am 13.1 5.8 5.5 60 3.6 W 33 43 18 23 1012.6 1012.7 0.0
15/10:30am 12.7 5.7 5.8 63 3.3 W 32 39 17 21 1012.7 1012.8 0.0
15/10:00am 12.1 6.4 6.8 70 2.6 W 26 39 14 21 1012.8 1012.9 0.0
15/09:30am 10.7 5.0 6.6 76 2.0 W 26 39 14 21 1012.8 1012.9 0.0
15/09:00am 9.3 4.8 6.2 81 1.4 W 19 26 10 14 1012.5 1012.6 0.2
15/08:30am 7.9 3.7 5.9 87 0.9 WNW 17 26 9 14 1012.3 1012.3 0.2
15/08:00am 7.0 3.6 5.8 92 0.5 WNW 13 19 7 10 1011.9 1011.9 0.2
15/07:30am 6.4 3.0 5.7 95 0.3 WNW 13 19 7 10 1011.5 1011.5 0.2
15/07:00am 6.3 2.1 5.6 95 0.3 W 17 24 9 13 1011.1 1011.1 0.2
15/06:30am 6.3 2.1 5.6 95 0.3 WNW 17 26 9 14 1010.7 1010.7 0.2
15/06:00am 5.7 2.2 5.6 99 0.0 WNW 13 17 7 9 1010.0 1010.1 0.2
15/05:30am 6.0 2.9 5.7 98 0.1 NW 11 17 6 9 1009.8 1009.9 0.2
15/05:00am 6.8 3.5 6.2 96 0.3 WNW 13 19 7 10 1009.5 1009.6 0.2
15/04:30am 7.1 3.0 6.4 95 0.3 W 17 24 9 13 1009.2 1009.3 0.2
15/04:00am 7.0 3.3 6.3 95 0.3 WNW 15 24 8 13 1008.9 1009.0 0.2
15/03:30am 7.3 4.0 6.6 95 0.3 WNW 13 19 7 10 1009.0 1009.1 0.2

Other Formats:

Comma delimited format used in spreadsheet applications
http://www.bom.gov.au/fwo/IDW60801/IDW60801.95644.axf

JavaScript Object Notation format (JSON) in row-major order
http://www.bom.gov.au/fwo/IDW60801/IDW60801.95644.json